sensor_id;sensor_type;location;lat;lon;timestamp;pressure;altitude;pressure_sealevel;temperature
20289;BMP180;10303;51.960;8.372;2023-10-19T00:01:11;98616.00;;;14.10
20289;BMP180;10303;51.960;8.372;2023-10-19T00:03:37;98618.00;;;14.10
20289;BMP180;10303;51.960;8.372;2023-10-19T00:06:04;98614.00;;;14.10
20289;BMP180;10303;51.960;8.372;2023-10-19T00:08:31;98617.00;;;14.10
20289;BMP180;10303;51.960;8.372;2023-10-19T00:11:10;98618.00;;;14.00
20289;BMP180;10303;51.960;8.372;2023-10-19T00:13:47;98614.00;;;14.00
20289;BMP180;10303;51.960;8.372;2023-10-19T00:16:16;98606.00;;;14.00
20289;BMP180;10303;51.960;8.372;2023-10-19T00:18:44;98596.00;;;14.00
20289;BMP180;10303;51.960;8.372;2023-10-19T00:21:10;98593.00;;;14.00
20289;BMP180;10303;51.960;8.372;2023-10-19T00:23:47;98604.00;;;13.90
20289;BMP180;10303;51.960;8.372;2023-10-19T00:26:14;98585.00;;;13.90
20289;BMP180;10303;51.960;8.372;2023-10-19T00:28:53;98584.00;;;13.90
20289;BMP180;10303;51.960;8.372;2023-10-19T00:31:22;98574.00;;;13.90
20289;BMP180;10303;51.960;8.372;2023-10-19T00:33:49;98582.00;;;13.90
20289;BMP180;10303;51.960;8.372;2023-10-19T00:36:20;98583.00;;;13.80
20289;BMP180;10303;51.960;8.372;2023-10-19T00:38:47;98574.00;;;13.80
20289;BMP180;10303;51.960;8.372;2023-10-19T00:41:20;98575.00;;;13.80
20289;BMP180;10303;51.960;8.372;2023-10-19T00:43:59;98568.00;;;13.80
20289;BMP180;10303;51.960;8.372;2023-10-19T00:46:39;98565.00;;;13.70
20289;BMP180;10303;51.960;8.372;2023-10-19T00:49:11;98560.00;;;13.70
20289;BMP180;10303;51.960;8.372;2023-10-19T00:51:51;98569.00;;;13.70
20289;BMP180;10303;51.960;8.372;2023-10-19T00:54:27;98557.00;;;13.70
20289;BMP180;10303;51.960;8.372;2023-10-19T00:57:19;98555.00;;;13.70
20289;BMP180;10303;51.960;8.372;2023-10-19T00:59:59;98544.00;;;13.70
20289;BMP180;10303;51.960;8.372;2023-10-19T01:02:48;98531.00;;;13.70
20289;BMP180;10303;51.960;8.372;2023-10-19T01:05:17;98534.00;;;13.60
20289;BMP180;10303;51.960;8.372;2023-10-19T01:07:47;98524.00;;;13.60
20289;BMP180;10303;51.960;8.372;2023-10-19T01:10:21;98518.00;;;13.60
20289;BMP180;10303;51.960;8.372;2023-10-19T01:12:49;98524.00;;;13.60
20289;BMP180;10303;51.960;8.372;2023-10-19T01:15:21;98511.00;;;13.60
20289;BMP180;10303;51.960;8.372;2023-10-19T01:17:59;98507.00;;;13.50
20289;BMP180;10303;51.960;8.372;2023-10-19T01:20:30;98499.00;;;13.50
20289;BMP180;10303;51.960;8.372;2023-10-19T01:25:52;98490.00;;;13.50
20289;BMP180;10303;51.960;8.372;2023-10-19T01:33:48;98501.00;;;13.50
20289;BMP180;10303;51.960;8.372;2023-10-19T01:36:14;98500.00;;;13.50
20289;BMP180;10303;51.960;8.372;2023-10-19T01:38:42;98495.00;;;13.50
20289;BMP180;10303;51.960;8.372;2023-10-19T01:41:09;98498.00;;;13.50
20289;BMP180;10303;51.960;8.372;2023-10-19T01:43:47;98496.00;;;13.50
20289;BMP180;10303;51.960;8.372;2023-10-19T01:46:17;98483.00;;;13.50
20289;BMP180;10303;51.960;8.372;2023-10-19T01:48:53;98477.00;;;13.50
20289;BMP180;10303;51.960;8.372;2023-10-19T01:51:23;98477.00;;;13.50
20289;BMP180;10303;51.960;8.372;2023-10-19T01:53:49;98477.00;;;13.50
20289;BMP180;10303;51.960;8.372;2023-10-19T01:56:17;98477.00;;;13.50
20289;BMP180;10303;51.960;8.372;2023-10-19T01:58:45;98469.00;;;13.50
20289;BMP180;10303;51.960;8.372;2023-10-19T02:01:16;98470.00;;;13.50
20289;BMP180;10303;51.960;8.372;2023-10-19T02:03:49;98463.00;;;13.50
20289;BMP180;10303;51.960;8.372;2023-10-19T02:06:21;98456.00;;;13.50
20289;BMP180;10303;51.960;8.372;2023-10-19T02:08:56;98456.00;;;13.50
20289;BMP180;10303;51.960;8.372;2023-10-19T02:11:24;98447.00;;;13.50
20289;BMP180;10303;51.960;8.372;2023-10-19T02:13:56;98441.00;;;13.50
20289;BMP180;10303;51.960;8.372;2023-10-19T02:16:30;98437.00;;;13.50
20289;BMP180;10303;51.960;8.372;2023-10-19T02:18:58;98434.00;;;13.50
20289;BMP180;10303;51.960;8.372;2023-10-19T02:21:27;98432.00;;;13.50
20289;BMP180;10303;51.960;8.372;2023-10-19T02:23:57;98437.00;;;13.50
20289;BMP180;10303;51.960;8.372;2023-10-19T02:26:25;98430.00;;;13.50
20289;BMP180;10303;51.960;8.372;2023-10-19T02:28:56;98417.00;;;13.60
20289;BMP180;10303;51.960;8.372;2023-10-19T02:31:25;98414.00;;;13.60
20289;BMP180;10303;51.960;8.372;2023-10-19T02:33:54;98422.00;;;13.60
20289;BMP180;10303;51.960;8.372;2023-10-19T02:36:27;98419.00;;;13.60
20289;BMP180;10303;51.960;8.372;2023-10-19T02:39:12;98408.00;;;13.60
20289;BMP180;10303;51.960;8.372;2023-10-19T02:41:45;98408.00;;;13.60
20289;BMP180;10303;51.960;8.372;2023-10-19T02:44:20;98396.00;;;13.60
20289;BMP180;10303;51.960;8.372;2023-10-19T02:46:55;98406.00;;;13.60
20289;BMP180;10303;51.960;8.372;2023-10-19T02:49:34;98406.00;;;13.60
20289;BMP180;10303;51.960;8.372;2023-10-19T02:52:04;98407.00;;;13.60
20289;BMP180;10303;51.960;8.372;2023-10-19T02:54:31;98403.00;;;13.70
20289;BMP180;10303;51.960;8.372;2023-10-19T02:57:00;98405.00;;;13.70
20289;BMP180;10303;51.960;8.372;2023-10-19T02:59:27;98400.00;;;13.70
20289;BMP180;10303;51.960;8.372;2023-10-19T03:02:00;98396.00;;;13.70
20289;BMP180;10303;51.960;8.372;2023-10-19T03:04:46;98392.00;;;13.70
20289;BMP180;10303;51.960;8.372;2023-10-19T03:07:12;98394.00;;;13.70
20289;BMP180;10303;51.960;8.372;2023-10-19T03:09:38;98388.00;;;13.80
20289;BMP180;10303;51.960;8.372;2023-10-19T03:12:05;98407.00;;;13.80
20289;BMP180;10303;51.960;8.372;2023-10-19T03:14:36;98398.00;;;13.80
20289;BMP180;10303;51.960;8.372;2023-10-19T03:17:03;98393.00;;;13.80
20289;BMP180;10303;51.960;8.372;2023-10-19T03:19:29;98385.00;;;13.80
20289;BMP180;10303;51.960;8.372;2023-10-19T03:21:56;98388.00;;;13.80
20289;BMP180;10303;51.960;8.372;2023-10-19T03:24:26;98375.00;;;13.80
20289;BMP180;10303;51.960;8.372;2023-10-19T03:27:06;98380.00;;;13.80
20289;BMP180;10303;51.960;8.372;2023-10-19T03:29:44;98380.00;;;13.80
20289;BMP180;10303;51.960;8.372;2023-10-19T03:32:28;98384.00;;;13.90
20289;BMP180;10303;51.960;8.372;2023-10-19T03:35:01;98375.00;;;13.90
20289;BMP180;10303;51.960;8.372;2023-10-19T03:37:28;98371.00;;;13.90
20289;BMP180;10303;51.960;8.372;2023-10-19T03:39:57;98368.00;;;13.90
20289;BMP180;10303;51.960;8.372;2023-10-19T03:42:25;98360.00;;;13.90
20289;BMP180;10303;51.960;8.372;2023-10-19T03:44:58;98353.00;;;13.90
20289;BMP180;10303;51.960;8.372;2023-10-19T03:47:26;98347.00;;;14.00
20289;BMP180;10303;51.960;8.372;2023-10-19T03:50:03;98352.00;;;14.00
20289;BMP180;10303;51.960;8.372;2023-10-19T03:52:36;98357.00;;;14.00
20289;BMP180;10303;51.960;8.372;2023-10-19T03:55:06;98353.00;;;14.10
20289;BMP180;10303;51.960;8.372;2023-10-19T03:57:43;98345.00;;;14.10
20289;BMP180;10303;51.960;8.372;2023-10-19T04:00:16;98346.00;;;14.10
20289;BMP180;10303;51.960;8.372;2023-10-19T04:02:47;98347.00;;;14.10
20289;BMP180;10303;51.960;8.372;2023-10-19T04:05:13;98343.00;;;14.10
20289;BMP180;10303;51.960;8.372;2023-10-19T04:07:49;98354.00;;;14.10
20289;BMP180;10303;51.960;8.372;2023-10-19T04:10:21;98350.00;;;14.20
20289;BMP180;10303;51.960;8.372;2023-10-19T04:13:05;98354.00;;;14.20
20289;BMP180;10303;51.960;8.372;2023-10-19T04:15:35;98340.00;;;14.20
20289;BMP180;10303;51.960;8.372;2023-10-19T04:18:03;98346.00;;;14.20
20289;BMP180;10303;51.960;8.372;2023-10-19T04:20:37;98335.00;;;14.20
20289;BMP180;10303;51.960;8.372;2023-10-19T04:23:09;98332.00;;;14.20
20289;BMP180;10303;51.960;8.372;2023-10-19T04:25:41;98329.00;;;14.30
20289;BMP180;10303;51.960;8.372;2023-10-19T04:28:07;98335.00;;;14.30
20289;BMP180;10303;51.960;8.372;2023-10-19T04:30:34;98327.00;;;14.30
20289;BMP180;10303;51.960;8.372;2023-10-19T04:33:03;98321.00;;;14.30
20289;BMP180;10303;51.960;8.372;2023-10-19T04:35:29;98321.00;;;14.30
20289;BMP180;10303;51.960;8.372;2023-10-19T04:38:00;98324.00;;;14.30
20289;BMP180;10303;51.960;8.372;2023-10-19T04:40:27;98322.00;;;14.30
20289;BMP180;10303;51.960;8.372;2023-10-19T04:42:54;98315.00;;;14.40
20289;BMP180;10303;51.960;8.372;2023-10-19T04:45:23;98315.00;;;14.40
20289;BMP180;10303;51.960;8.372;2023-10-19T04:47:53;98315.00;;;14.40
20289;BMP180;10303;51.960;8.372;2023-10-19T04:50:21;98307.00;;;14.40
20289;BMP180;10303;51.960;8.372;2023-10-19T04:52:47;98311.00;;;14.40
20289;BMP180;10303;51.960;8.372;2023-10-19T04:55:13;98309.00;;;14.40
20289;BMP180;10303;51.960;8.372;2023-10-19T04:57:39;98306.00;;;14.50
20289;BMP180;10303;51.960;8.372;2023-10-19T05:00:06;98306.00;;;14.50
20289;BMP180;10303;51.960;8.372;2023-10-19T05:02:33;98298.00;;;14.50
20289;BMP180;10303;51.960;8.372;2023-10-19T05:04:59;98303.00;;;14.50
20289;BMP180;10303;51.960;8.372;2023-10-19T05:07:25;98307.00;;;14.60
20289;BMP180;10303;51.960;8.372;2023-10-19T05:09:52;98300.00;;;14.60
20289;BMP180;10303;51.960;8.372;2023-10-19T05:12:19;98306.00;;;14.60
20289;BMP180;10303;51.960;8.372;2023-10-19T05:14:45;98310.00;;;14.60
20289;BMP180;10303;51.960;8.372;2023-10-19T05:17:11;98309.00;;;14.70
20289;BMP180;10303;51.960;8.372;2023-10-19T05:19:39;98309.00;;;14.70
20289;BMP180;10303;51.960;8.372;2023-10-19T05:22:08;98301.00;;;14.70
20289;BMP180;10303;51.960;8.372;2023-10-19T05:24:36;98305.00;;;14.70
20289;BMP180;10303;51.960;8.372;2023-10-19T05:27:02;98308.00;;;14.70
20289;BMP180;10303;51.960;8.372;2023-10-19T05:29:31;98301.00;;;14.70
20289;BMP180;10303;51.960;8.372;2023-10-19T05:31:58;98296.00;;;14.80
20289;BMP180;10303;51.960;8.372;2023-10-19T05:34:25;98297.00;;;14.80
20289;BMP180;10303;51.960;8.372;2023-10-19T05:36:55;98298.00;;;14.80
20289;BMP180;10303;51.960;8.372;2023-10-19T05:39:24;98296.00;;;14.90
20289;BMP180;10303;51.960;8.372;2023-10-19T05:41:56;98308.00;;;14.80
20289;BMP180;10303;51.960;8.372;2023-10-19T05:44:25;98308.00;;;14.90
20289;BMP180;10303;51.960;8.372;2023-10-19T05:46:51;98302.00;;;14.90
20289;BMP180;10303;51.960;8.372;2023-10-19T05:49:17;98306.00;;;14.90
20289;BMP180;10303;51.960;8.372;2023-10-19T05:51:43;98308.00;;;14.90
20289;BMP180;10303;51.960;8.372;2023-10-19T05:54:10;98314.00;;;15.00
20289;BMP180;10303;51.960;8.372;2023-10-19T05:56:38;98324.00;;;15.00
20289;BMP180;10303;51.960;8.372;2023-10-19T05:59:04;98308.00;;;15.00
20289;BMP180;10303;51.960;8.372;2023-10-19T06:01:31;98318.00;;;15.00
20289;BMP180;10303;51.960;8.372;2023-10-19T06:03:57;98322.00;;;15.00
20289;BMP180;10303;51.960;8.372;2023-10-19T06:06:23;98318.00;;;15.10
20289;BMP180;10303;51.960;8.372;2023-10-19T06:08:49;98317.00;;;15.10
20289;BMP180;10303;51.960;8.372;2023-10-19T06:11:20;98326.00;;;15.10
20289;BMP180;10303;51.960;8.372;2023-10-19T06:13:46;98326.00;;;15.20
20289;BMP180;10303;51.960;8.372;2023-10-19T06:16:12;98336.00;;;15.20
20289;BMP180;10303;51.960;8.372;2023-10-19T06:18:38;98335.00;;;15.20
20289;BMP180;10303;51.960;8.372;2023-10-19T06:21:04;98335.00;;;15.20
20289;BMP180;10303;51.960;8.372;2023-10-19T06:23:30;98335.00;;;15.30
20289;BMP180;10303;51.960;8.372;2023-10-19T06:25:57;98343.00;;;15.30
20289;BMP180;10303;51.960;8.372;2023-10-19T06:28:23;98339.00;;;15.30
20289;BMP180;10303;51.960;8.372;2023-10-19T06:30:49;98336.00;;;15.30
20289;BMP180;10303;51.960;8.372;2023-10-19T06:33:16;98336.00;;;15.30
20289;BMP180;10303;51.960;8.372;2023-10-19T06:35:42;98339.00;;;15.40
20289;BMP180;10303;51.960;8.372;2023-10-19T06:38:08;98331.00;;;15.40
20289;BMP180;10303;51.960;8.372;2023-10-19T06:40:35;98341.00;;;15.40
20289;BMP180;10303;51.960;8.372;2023-10-19T06:43:04;98345.00;;;15.40
20289;BMP180;10303;51.960;8.372;2023-10-19T06:45:31;98329.00;;;15.50
20289;BMP180;10303;51.960;8.372;2023-10-19T06:47:58;98340.00;;;15.50
20289;BMP180;10303;51.960;8.372;2023-10-19T06:50:29;98329.00;;;15.50
20289;BMP180;10303;51.960;8.372;2023-10-19T06:52:55;98339.00;;;15.50
20289;BMP180;10303;51.960;8.372;2023-10-19T06:55:21;98339.00;;;15.60
20289;BMP180;10303;51.960;8.372;2023-10-19T06:57:53;98347.00;;;15.60
20289;BMP180;10303;51.960;8.372;2023-10-19T07:00:22;98346.00;;;15.60
20289;BMP180;10303;51.960;8.372;2023-10-19T07:02:52;98336.00;;;15.70
20289;BMP180;10303;51.960;8.372;2023-10-19T07:05:19;98355.00;;;15.70
20289;BMP180;10303;51.960;8.372;2023-10-19T07:07:56;98347.00;;;15.80
20289;BMP180;10303;51.960;8.372;2023-10-19T07:10:24;98340.00;;;15.80
20289;BMP180;10303;51.960;8.372;2023-10-19T07:12:54;98343.00;;;15.80
20289;BMP180;10303;51.960;8.372;2023-10-19T07:15:21;98358.00;;;15.90
20289;BMP180;10303;51.960;8.372;2023-10-19T07:17:50;98350.00;;;15.90
20289;BMP180;10303;51.960;8.372;2023-10-19T07:20:18;98348.00;;;16.00
20289;BMP180;10303;51.960;8.372;2023-10-19T07:23:04;98338.00;;;16.00
20289;BMP180;10303;51.960;8.372;2023-10-19T07:30:57;98351.00;;;16.00
20289;BMP180;10303;51.960;8.372;2023-10-19T07:33:23;98350.00;;;16.10
20289;BMP180;10303;51.960;8.372;2023-10-19T07:35:50;98370.00;;;16.20
20289;BMP180;10303;51.960;8.372;2023-10-19T07:38:25;98368.00;;;16.20
20289;BMP180;10303;51.960;8.372;2023-10-19T07:40:52;98361.00;;;16.30
20289;BMP180;10303;51.960;8.372;2023-10-19T07:43:19;98374.00;;;16.40
20289;BMP180;10303;51.960;8.372;2023-10-19T07:45:46;98367.00;;;16.40
20289;BMP180;10303;51.960;8.372;2023-10-19T07:48:14;98354.00;;;16.40
20289;BMP180;10303;51.960;8.372;2023-10-19T07:50:40;98362.00;;;16.50
20289;BMP180;10303;51.960;8.372;2023-10-19T07:53:06;98359.00;;;16.60
20289;BMP180;10303;51.960;8.372;2023-10-19T07:55:33;98358.00;;;16.60
20289;BMP180;10303;51.960;8.372;2023-10-19T07:57:59;98358.00;;;16.70
20289;BMP180;10303;51.960;8.372;2023-10-19T08:00:26;98361.00;;;16.70
20289;BMP180;10303;51.960;8.372;2023-10-19T08:02:55;98357.00;;;16.80
20289;BMP180;10303;51.960;8.372;2023-10-19T08:05:21;98361.00;;;16.90
20289;BMP180;10303;51.960;8.372;2023-10-19T08:07:48;98368.00;;;16.90
20289;BMP180;10303;51.960;8.372;2023-10-19T08:10:16;98358.00;;;16.90
20289;BMP180;10303;51.960;8.372;2023-10-19T08:12:44;98364.00;;;17.00
20289;BMP180;10303;51.960;8.372;2023-10-19T08:15:14;98365.00;;;17.10
20289;BMP180;10303;51.960;8.372;2023-10-19T08:17:47;98368.00;;;17.10
20289;BMP180;10303;51.960;8.372;2023-10-19T08:20:14;98354.00;;;17.20
20289;BMP180;10303;51.960;8.372;2023-10-19T08:22:57;98364.00;;;17.20
20289;BMP180;10303;51.960;8.372;2023-10-19T08:25:25;98367.00;;;17.30
20289;BMP180;10303;51.960;8.372;2023-10-19T08:27:54;98369.00;;;17.40
20289;BMP180;10303;51.960;8.372;2023-10-19T08:30:23;98359.00;;;17.50
20289;BMP180;10303;51.960;8.372;2023-10-19T08:32:51;98376.00;;;17.60
20289;BMP180;10303;51.960;8.372;2023-10-19T08:35:20;98375.00;;;17.60
20289;BMP180;10303;51.960;8.372;2023-10-19T08:37:54;98379.00;;;17.70
20289;BMP180;10303;51.960;8.372;2023-10-19T08:40:21;98379.00;;;17.80
20289;BMP180;10303;51.960;8.372;2023-10-19T08:42:49;98374.00;;;17.90
20289;BMP180;10303;51.960;8.372;2023-10-19T08:45:16;98381.00;;;17.90
20289;BMP180;10303;51.960;8.372;2023-10-19T08:48:00;98372.00;;;18.00
20289;BMP180;10303;51.960;8.372;2023-10-19T08:50:30;98368.00;;;18.10
20289;BMP180;10303;51.960;8.372;2023-10-19T08:52:59;98379.00;;;18.20
20289;BMP180;10303;51.960;8.372;2023-10-19T08:55:26;98366.00;;;18.20
20289;BMP180;10303;51.960;8.372;2023-10-19T08:57:52;98364.00;;;18.30
20289;BMP180;10303;51.960;8.372;2023-10-19T09:00:19;98369.00;;;18.40
20289;BMP180;10303;51.960;8.372;2023-10-19T09:02:53;98364.00;;;18.40
20289;BMP180;10303;51.960;8.372;2023-10-19T09:05:20;98362.00;;;18.50
20289;BMP180;10303;51.960;8.372;2023-10-19T09:07:49;98364.00;;;18.50
20289;BMP180;10303;51.960;8.372;2023-10-19T09:10:26;98371.00;;;18.60
20289;BMP180;10303;51.960;8.372;2023-10-19T09:13:03;98370.00;;;18.60
20289;BMP180;10303;51.960;8.372;2023-10-19T09:15:31;98373.00;;;18.70
20289;BMP180;10303;51.960;8.372;2023-10-19T09:18:23;98375.00;;;18.70
20289;BMP180;10303;51.960;8.372;2023-10-19T09:20:52;98371.00;;;18.80
20289;BMP180;10303;51.960;8.372;2023-10-19T09:23:23;98365.00;;;18.80
20289;BMP180;10303;51.960;8.372;2023-10-19T09:25:50;98361.00;;;18.90
20289;BMP180;10303;51.960;8.372;2023-10-19T09:28:19;98368.00;;;18.90
20289;BMP180;10303;51.960;8.372;2023-10-19T09:30:46;98352.00;;;19.00
20289;BMP180;10303;51.960;8.372;2023-10-19T09:33:17;98355.00;;;19.00
20289;BMP180;10303;51.960;8.372;2023-10-19T09:35:46;98362.00;;;19.10
20289;BMP180;10303;51.960;8.372;2023-10-19T09:38:19;98370.00;;;19.10
20289;BMP180;10303;51.960;8.372;2023-10-19T09:40:52;98363.00;;;19.20
20289;BMP180;10303;51.960;8.372;2023-10-19T09:43:34;98362.00;;;19.20
20289;BMP180;10303;51.960;8.372;2023-10-19T09:46:07;98367.00;;;19.20
20289;BMP180;10303;51.960;8.372;2023-10-19T09:48:45;98353.00;;;19.30
20289;BMP180;10303;51.960;8.372;2023-10-19T09:51:14;98352.00;;;19.40
20289;BMP180;10303;51.960;8.372;2023-10-19T09:56:34;98355.00;;;19.50
20289;BMP180;10303;51.960;8.372;2023-10-19T09:59:35;98354.00;;;19.50
20289;BMP180;10303;51.960;8.372;2023-10-19T10:02:08;98347.00;;;19.60
20289;BMP180;10303;51.960;8.372;2023-10-19T10:04:39;98343.00;;;19.60
20289;BMP180;10303;51.960;8.372;2023-10-19T10:07:08;98344.00;;;19.70
20289;BMP180;10303;51.960;8.372;2023-10-19T10:09:42;98341.00;;;19.70
20289;BMP180;10303;51.960;8.372;2023-10-19T10:12:23;98339.00;;;19.80
20289;BMP180;10303;51.960;8.372;2023-10-19T10:17:28;98341.00;;;19.90
20289;BMP180;10303;51.960;8.372;2023-10-19T10:20:28;98339.00;;;20.00
20289;BMP180;10303;51.960;8.372;2023-10-19T10:25:46;98346.00;;;20.20
20289;BMP180;10303;51.960;8.372;2023-10-19T10:28:15;98347.00;;;20.30
20289;BMP180;10303;51.960;8.372;2023-10-19T10:31:14;98330.00;;;20.30
20289;BMP180;10303;51.960;8.372;2023-10-19T10:33:47;98332.00;;;20.30
20289;BMP180;10303;51.960;8.372;2023-10-19T10:36:16;98323.00;;;20.40
20289;BMP180;10303;51.960;8.372;2023-10-19T10:38:44;98324.00;;;20.50
20289;BMP180;10303;51.960;8.372;2023-10-19T10:41:10;98334.00;;;20.50
20289;BMP180;10303;51.960;8.372;2023-10-19T10:43:56;98330.00;;;20.50
20289;BMP180;10303;51.960;8.372;2023-10-19T10:46:27;98335.00;;;20.60
20289;BMP180;10303;51.960;8.372;2023-10-19T10:48:55;98324.00;;;20.60
20289;BMP180;10303;51.960;8.372;2023-10-19T10:51:26;98330.00;;;20.60
20289;BMP180;10303;51.960;8.372;2023-10-19T10:53:57;98331.00;;;20.70
20289;BMP180;10303;51.960;8.372;2023-10-19T10:56:24;98323.00;;;20.70
20289;BMP180;10303;51.960;8.372;2023-10-19T10:58:50;98330.00;;;20.70
20289;BMP180;10303;51.960;8.372;2023-10-19T11:01:31;98334.00;;;20.70
20289;BMP180;10303;51.960;8.372;2023-10-19T11:04:09;98334.00;;;20.80
20289;BMP180;10303;51.960;8.372;2023-10-19T11:06:53;98335.00;;;20.90
20289;BMP180;10303;51.960;8.372;2023-10-19T11:09:21;98329.00;;;21.00
20289;BMP180;10303;51.960;8.372;2023-10-19T11:11:48;98331.00;;;21.10
20289;BMP180;10303;51.960;8.372;2023-10-19T11:14:15;98323.00;;;21.20
20289;BMP180;10303;51.960;8.372;2023-10-19T11:16:41;98331.00;;;21.30
20289;BMP180;10303;51.960;8.372;2023-10-19T11:19:09;98328.00;;;21.30
20289;BMP180;10303;51.960;8.372;2023-10-19T11:21:51;98322.00;;;21.40
20289;BMP180;10303;51.960;8.372;2023-10-19T11:24:27;98326.00;;;21.50
20289;BMP180;10303;51.960;8.372;2023-10-19T11:26:58;98328.00;;;21.60
20289;BMP180;10303;51.960;8.372;2023-10-19T11:29:24;98322.00;;;21.70
20289;BMP180;10303;51.960;8.372;2023-10-19T11:31:58;98318.00;;;21.70
20289;BMP180;10303;51.960;8.372;2023-10-19T11:34:25;98320.00;;;21.80
20289;BMP180;10303;51.960;8.372;2023-10-19T11:36:58;98317.00;;;21.80
20289;BMP180;10303;51.960;8.372;2023-10-19T11:39:30;98312.00;;;21.90
20289;BMP180;10303;51.960;8.372;2023-10-19T11:41:56;98318.00;;;21.90
20289;BMP180;10303;51.960;8.372;2023-10-19T11:44:23;98313.00;;;22.00
20289;BMP180;10303;51.960;8.372;2023-10-19T11:46:48;98306.00;;;22.10
20289;BMP180;10303;51.960;8.372;2023-10-19T11:49:14;98310.00;;;22.10
20289;BMP180;10303;51.960;8.372;2023-10-19T11:51:41;98313.00;;;22.10
20289;BMP180;10303;51.960;8.372;2023-10-19T11:54:06;98306.00;;;22.20
20289;BMP180;10303;51.960;8.372;2023-10-19T11:56:32;98316.00;;;22.20
20289;BMP180;10303;51.960;8.372;2023-10-19T11:58:58;98316.00;;;22.20
20289;BMP180;10303;51.960;8.372;2023-10-19T12:01:25;98307.00;;;22.30
20289;BMP180;10303;51.960;8.372;2023-10-19T12:03:52;98303.00;;;22.30
20289;BMP180;10303;51.960;8.372;2023-10-19T12:06:18;98307.00;;;22.40
20289;BMP180;10303;51.960;8.372;2023-10-19T12:08:49;98311.00;;;22.40
20289;BMP180;10303;51.960;8.372;2023-10-19T12:11:15;98307.00;;;22.40
20289;BMP180;10303;51.960;8.372;2023-10-19T12:13:43;98302.00;;;22.40
20289;BMP180;10303;51.960;8.372;2023-10-19T12:16:13;98303.00;;;22.50
20289;BMP180;10303;51.960;8.372;2023-10-19T12:18:42;98301.00;;;22.50
20289;BMP180;10303;51.960;8.372;2023-10-19T12:21:09;98303.00;;;22.50
20289;BMP180;10303;51.960;8.372;2023-10-19T12:23:43;98318.00;;;22.50
20289;BMP180;10303;51.960;8.372;2023-10-19T12:26:09;98308.00;;;22.50
20289;BMP180;10303;51.960;8.372;2023-10-19T12:28:39;98307.00;;;22.50
20289;BMP180;10303;51.960;8.372;2023-10-19T12:31:09;98299.00;;;22.50
20289;BMP180;10303;51.960;8.372;2023-10-19T12:33:36;98303.00;;;22.40
20289;BMP180;10303;51.960;8.372;2023-10-19T12:36:02;98305.00;;;22.40
20289;BMP180;10303;51.960;8.372;2023-10-19T12:38:47;98293.00;;;22.40
20289;BMP180;10303;51.960;8.372;2023-10-19T12:41:13;98294.00;;;22.40
20289;BMP180;10303;51.960;8.372;2023-10-19T12:43:40;98293.00;;;22.50
20289;BMP180;10303;51.960;8.372;2023-10-19T12:46:06;98294.00;;;22.50
20289;BMP180;10303;51.960;8.372;2023-10-19T12:48:35;98286.00;;;22.60
20289;BMP180;10303;51.960;8.372;2023-10-19T12:51:09;98282.00;;;22.60
20289;BMP180;10303;51.960;8.372;2023-10-19T12:53:39;98272.00;;;22.60
20289;BMP180;10303;51.960;8.372;2023-10-19T12:56:05;98263.00;;;22.70
20289;BMP180;10303;51.960;8.372;2023-10-19T12:58:33;98262.00;;;22.80
20289;BMP180;10303;51.960;8.372;2023-10-19T13:01:00;98266.00;;;22.90
20289;BMP180;10303;51.960;8.372;2023-10-19T13:03:26;98253.00;;;22.90
20289;BMP180;10303;51.960;8.372;2023-10-19T13:05:54;98262.00;;;23.00
20289;BMP180;10303;51.960;8.372;2023-10-19T13:08:20;98252.00;;;23.10
20289;BMP180;10303;51.960;8.372;2023-10-19T13:10:47;98251.00;;;23.10
20289;BMP180;10303;51.960;8.372;2023-10-19T13:13:15;98263.00;;;23.20
20289;BMP180;10303;51.960;8.372;2023-10-19T13:15:45;98254.00;;;23.30
20289;BMP180;10303;51.960;8.372;2023-10-19T13:18:12;98261.00;;;23.30
20289;BMP180;10303;51.960;8.372;2023-10-19T13:20:53;98261.00;;;23.40
20289;BMP180;10303;51.960;8.372;2023-10-19T13:23:20;98251.00;;;23.40
20289;BMP180;10303;51.960;8.372;2023-10-19T13:25:50;98249.00;;;23.50
20289;BMP180;10303;51.960;8.372;2023-10-19T13:28:21;98254.00;;;23.50
20289;BMP180;10303;51.960;8.372;2023-10-19T13:30:53;98255.00;;;23.50
20289;BMP180;10303;51.960;8.372;2023-10-19T13:33:20;98255.00;;;23.50
20289;BMP180;10303;51.960;8.372;2023-10-19T13:35:52;98253.00;;;23.60
20289;BMP180;10303;51.960;8.372;2023-10-19T13:38:19;98255.00;;;23.60
20289;BMP180;10303;51.960;8.372;2023-10-19T13:40:49;98258.00;;;23.60
20289;BMP180;10303;51.960;8.372;2023-10-19T13:43:18;98259.00;;;23.60
20289;BMP180;10303;51.960;8.372;2023-10-19T13:45:46;98260.00;;;23.60
20289;BMP180;10303;51.960;8.372;2023-10-19T13:48:13;98255.00;;;23.60
20289;BMP180;10303;51.960;8.372;2023-10-19T13:50:46;98252.00;;;23.60
20289;BMP180;10303;51.960;8.372;2023-10-19T13:53:16;98250.00;;;23.60
20289;BMP180;10303;51.960;8.372;2023-10-19T13:55:43;98243.00;;;23.60
20289;BMP180;10303;51.960;8.372;2023-10-19T13:58:09;98242.00;;;23.60
20289;BMP180;10303;51.960;8.372;2023-10-19T14:00:35;98253.00;;;23.50
20289;BMP180;10303;51.960;8.372;2023-10-19T14:03:12;98255.00;;;23.50
20289;BMP180;10303;51.960;8.372;2023-10-19T14:05:41;98261.00;;;23.40
20289;BMP180;10303;51.960;8.372;2023-10-19T14:08:16;98256.00;;;23.40
20289;BMP180;10303;51.960;8.372;2023-10-19T14:10:42;98251.00;;;23.30
20289;BMP180;10303;51.960;8.372;2023-10-19T14:13:09;98241.00;;;23.30
20289;BMP180;10303;51.960;8.372;2023-10-19T14:15:38;98243.00;;;23.20
20289;BMP180;10303;51.960;8.372;2023-10-19T14:18:05;98246.00;;;23.20
20289;BMP180;10303;51.960;8.372;2023-10-19T14:20:31;98238.00;;;23.20
20289;BMP180;10303;51.960;8.372;2023-10-19T14:23:00;98242.00;;;23.20
20289;BMP180;10303;51.960;8.372;2023-10-19T14:25:27;98236.00;;;23.10
20289;BMP180;10303;51.960;8.372;2023-10-19T14:27:56;98229.00;;;23.10
20289;BMP180;10303;51.960;8.372;2023-10-19T14:30:27;98231.00;;;23.10
20289;BMP180;10303;51.960;8.372;2023-10-19T14:32:57;98219.00;;;23.00
20289;BMP180;10303;51.960;8.372;2023-10-19T14:35:24;98219.00;;;23.00
20289;BMP180;10303;51.960;8.372;2023-10-19T14:37:55;98214.00;;;23.00
20289;BMP180;10303;51.960;8.372;2023-10-19T14:40:25;98206.00;;;22.90
20289;BMP180;10303;51.960;8.372;2023-10-19T14:42:53;98204.00;;;22.90
20289;BMP180;10303;51.960;8.372;2023-10-19T14:45:23;98204.00;;;22.90
20289;BMP180;10303;51.960;8.372;2023-10-19T14:47:55;98208.00;;;22.90